Time;durP1;ratioP1;P1;durP2;ratioP2;P2;SDS_P1;SDS_P2;PMS_P1;PMS_P2;Temp;Humidity;BMP_temperature;BMP_pressure;BME280_temperature;BME280_humidity;BME280_pressure;Samples;Min_cycle;Max_cycle;Signal;HPM_P1;HPM_P2
2021/04/01 00:00:40;;;;;;;15.23;7.50;;;12.80;97.80;;;;;;5088447;28;20468;-62
2021/04/01 00:03:06;;;;;;;17.13;7.05;;;12.80;97.80;;;;;;5088670;28;20370;-62
2021/04/01 00:05:32;;;;;;;15.90;7.75;;;12.70;98.50;;;;;;5089538;28;20496;-61
2021/04/01 00:07:58;;;;;;;13.60;7.25;;;12.80;98.40;;;;;;5087870;28;20455;-61
2021/04/01 00:10:28;;;;;;;12.97;7.30;;;13.30;98.30;;;;;;5088579;28;20405;-62
2021/04/01 00:12:54;;;;;;;14.40;7.82;;;12.80;98.10;;;;;;5089187;28;20469;-62
2021/04/01 00:15:20;;;;;;;12.57;6.85;;;12.80;97.80;;;;;;5071378;28;20398;-62
2021/04/01 00:17:46;;;;;;;14.25;7.20;;;12.90;97.40;;;;;;5087663;28;20406;-57
2021/04/01 00:20:15;;;;;;;11.43;6.93;;;12.90;97.40;;;;;;5087993;28;20420;-61
2021/04/01 00:22:41;;;;;;;17.03;7.50;;;12.90;97.50;;;;;;5089731;28;20377;-62
2021/04/01 00:25:09;;;;;;;12.57;6.63;;;12.80;97.60;;;;;;5088788;28;20382;-62
2021/04/01 00:27:34;;;;;;;17.10;7.65;;;12.70;97.90;;;;;;5088224;28;20427;-62
2021/04/01 00:30:01;;;;;;;15.50;7.50;;;12.70;98.40;;;;;;5088534;28;20382;-62
2021/04/01 00:32:26;;;;;;;15.32;7.32;;;12.70;98.20;;;;;;5088290;28;20855;-62
2021/04/01 00:34:52;;;;;;;14.73;7.37;;;12.70;98.60;;;;;;5088885;28;20377;-62
2021/04/01 00:37:18;;;;;;;12.67;7.50;;;12.80;98.80;;;;;;5069919;28;20413;-62
2021/04/01 00:39:43;;;;;;;19.80;8.48;;;12.50;99.20;;;;;;5088943;28;20537;-56
2021/04/01 00:42:09;;;;;;;15.10;7.47;;;12.40;99.90;;;;;;5088952;28;20378;-61
2021/04/01 00:44:35;;;;;;;12.63;7.57;;;12.30;99.90;;;;;;5088568;28;20425;-61
2021/04/01 00:47:06;;;;;;;12.07;7.30;;;12.20;99.90;;;;;;5088987;28;20865;-62
2021/04/01 00:49:32;;;;;;;14.90;7.28;;;12.10;99.90;;;;;;5090725;28;20398;-62
2021/04/01 00:51:59;;;;;;;16.88;7.82;;;12.00;99.90;;;;;;5092359;28;20385;-61
2021/04/01 00:54:27;;;;;;;14.77;7.40;;;12.00;99.90;;;;;;5092264;28;20390;-62
2021/04/01 00:56:53;;;;;;;14.02;7.50;;;12.10;99.90;;;;;;5091871;28;20400;-62
2021/04/01 00:59:19;;;;;;;16.13;7.68;;;12.20;99.90;;;;;;5092263;28;20398;-62
2021/04/01 01:01:58;;;;;;;12.90;7.07;;;12.20;99.90;;;;;;5093173;28;20840;-57
2021/04/01 01:04:24;;;;;;;15.15;7.10;;;12.30;99.90;;;;;;5092307;28;20377;-59
2021/04/01 01:06:50;;;;;;;16.47;7.60;;;12.30;99.90;;;;;;5092131;28;20405;-64
2021/04/01 01:09:16;;;;;;;14.68;7.20;;;12.30;99.90;;;;;;5092051;28;20780;-62
2021/04/01 01:11:41;;;;;;;13.73;8.07;;;12.20;99.90;;;;;;5093009;28;20858;-62
2021/04/01 01:14:08;;;;;;;16.27;7.45;;;12.20;99.90;;;;;;5091073;28;20386;-62
2021/04/01 01:16:35;;;;;;;13.65;7.70;;;12.20;99.90;;;;;;5083663;28;20496;-62
2021/04/01 01:19:02;;;;;;;16.65;8.00;;;12.20;99.90;;;;;;5092169;28;20377;-62
2021/04/01 01:21:28;;;;;;;16.00;7.90;;;12.20;99.90;;;;;;5091507;28;20495;-62
2021/04/01 01:23:55;;;;;;;14.18;7.80;;;12.10;99.90;;;;;;5092108;28;20859;-63
2021/04/01 01:26:20;;;;;;;16.90;8.40;;;12.10;99.90;;;;;;5091141;28;20455;-62
2021/04/01 01:28:47;;;;;;;17.38;8.27;;;12.10;99.90;;;;;;5091094;28;20382;-59
2021/04/01 01:31:14;;;;;;;13.32;8.07;;;12.00;99.90;;;;;;5091716;28;20485;-62
2021/04/01 01:33:42;;;;;;;14.43;7.80;;;11.90;99.90;;;;;;5091286;28;20519;-62
2021/04/01 01:36:12;;;;;;;15.25;8.10;;;11.80;99.90;;;;;;5091481;28;20378;-61
2021/04/01 01:38:38;;;;;;;15.05;8.32;;;11.80;99.90;;;;;;5092601;28;20378;-62
2021/04/01 01:41:05;;;;;;;15.13;8.18;;;11.80;99.90;;;;;;5071686;28;20405;-62
2021/04/01 01:43:33;;;;;;;14.75;7.80;;;11.80;99.90;;;;;;5092769;28;20385;-62
2021/04/01 01:45:59;;;;;;;14.15;7.93;;;11.80;99.90;;;;;;5090214;28;20390;-62
2021/04/01 01:48:24;;;;;;;18.70;8.57;;;11.80;99.90;;;;;;5091861;28;20477;-59
2021/04/01 01:50:50;;;;;;;17.87;8.67;;;11.70;99.90;;;;;;5090481;28;20402;-61
2021/04/01 01:53:17;;;;;;;15.30;8.20;;;11.70;99.90;;;;;;5091803;28;20381;-62
2021/04/01 01:55:43;;;;;;;16.92;8.63;;;11.70;99.90;;;;;;5090748;28;20398;-62
2021/04/01 01:58:10;;;;;;;15.77;8.73;;;11.60;99.90;;;;;;5091278;28;20390;-62
2021/04/01 02:00:48;;;;;;;18.83;8.35;;;11.60;99.90;;;;;;5089609;28;20521;-60
2021/04/01 02:03:14;;;;;;;15.23;8.50;;;11.60;99.90;;;;;;5091182;28;20381;-62
2021/04/01 02:05:40;;;;;;;18.30;8.63;;;11.40;99.90;;;;;;5092077;28;20388;-62
2021/04/01 02:08:08;;;;;;;13.52;7.93;;;11.40;99.90;;;;;;5090051;28;20409;-62
2021/04/01 02:10:40;;;;;;;16.10;8.00;;;11.40;99.90;;;;;;5073605;28;20400;-62
2021/04/01 02:13:07;;;;;;;15.05;8.45;;;11.40;99.90;;;;;;5072802;28;20394;-62
2021/04/01 02:15:40;;;;;;;12.53;7.37;;;11.40;99.90;;;;;;5090400;28;20402;-63
2021/04/01 02:18:10;;;;;;;14.30;7.90;;;11.40;99.90;;;;;;5090727;28;21092;-62
2021/04/01 02:20:42;;;;;;;13.50;8.70;;;11.30;99.90;;;;;;5090342;28;20430;-62
2021/04/01 02:23:19;;;;;;;16.60;8.47;;;11.20;99.90;;;;;;5090792;28;20458;-61
2021/04/01 02:25:46;;;;;;;13.45;7.95;;;11.00;99.90;;;;;;5091637;28;20735;-62
2021/04/01 02:28:13;;;;;;;14.70;7.82;;;11.00;99.90;;;;;;5090095;28;20401;-62
2021/04/01 02:30:41;;;;;;;14.50;8.40;;;11.00;99.90;;;;;;5073305;28;20390;-61
2021/04/01 02:33:08;;;;;;;18.33;8.23;;;11.00;99.90;;;;;;5090565;28;20888;-62
2021/04/01 02:35:34;;;;;;;16.90;8.40;;;11.00;99.90;;;;;;5090304;28;20501;-62
2021/04/01 02:38:00;;;;;;;16.92;8.90;;;10.90;99.90;;;;;;5090460;28;20378;-62
2021/04/01 02:40:26;;;;;;;17.23;8.40;;;10.90;99.90;;;;;;5088760;28;20440;-62
2021/04/01 02:42:52;;;;;;;21.17;9.40;;;11.00;99.90;;;;;;5090409;28;20843;-61
2021/04/01 02:45:18;;;;;;;18.02;8.55;;;11.00;99.90;;;;;;5089831;28;20893;-61
2021/04/01 02:47:44;;;;;;;15.70;7.72;;;11.00;99.90;;;;;;5091363;28;20385;-61
2021/04/01 02:50:11;;;;;;;17.60;8.60;;;11.00;99.90;;;;;;5089948;28;20425;-59
2021/04/01 02:52:37;;;;;;;16.35;8.20;;;11.10;99.90;;;;;;5090466;28;20397;-61
2021/04/01 02:55:05;;;;;;;16.45;8.52;;;11.10;99.90;;;;;;5089378;28;20480;-63
2021/04/01 02:57:31;;;;;;;20.20;8.90;;;11.10;99.90;;;;;;5090840;28;20516;-62
2021/04/01 02:59:57;;;;;;;17.50;8.10;;;11.10;99.90;;;;;;5088670;28;20505;-60
2021/04/01 03:02:26;;;;;;;20.00;8.77;;;11.10;99.90;;;;;;5090131;28;20378;-62
2021/04/01 03:04:52;;;;;;;14.00;8.10;;;11.10;99.90;;;;;;5089767;28;20390;-58
2021/04/01 03:07:18;;;;;;;14.63;8.25;;;11.10;99.90;;;;;;5089929;28;20426;-60
2021/04/01 03:09:43;;;;;;;17.27;8.70;;;11.00;99.90;;;;;;5090796;28;20437;-62
2021/04/01 03:12:09;;;;;;;15.90;8.02;;;11.00;99.90;;;;;;5088390;28;20378;-61
2021/04/01 03:14:35;;;;;;;15.00;8.10;;;11.00;99.90;;;;;;5089466;28;20459;-61
2021/04/01 03:17:01;;;;;;;16.33;8.70;;;11.10;99.90;;;;;;5089322;28;20875;-61
2021/04/01 03:19:26;;;;;;;16.30;8.30;;;11.10;99.90;;;;;;5090630;28;20739;-61
2021/04/01 03:21:52;;;;;;;14.82;8.18;;;11.10;99.90;;;;;;5088742;28;20480;-62
2021/04/01 03:24:18;;;;;;;17.27;8.30;;;11.00;99.90;;;;;;5090462;28;20388;-61
2021/04/01 03:26:44;;;;;;;15.52;8.80;;;11.00;99.90;;;;;;5090720;28;20406;-61
2021/04/01 03:29:09;;;;;;;14.38;8.30;;;10.90;99.90;;;;;;5087941;28;21048;-62
2021/04/01 03:31:35;;;;;;;13.30;8.30;;;10.90;99.90;;;;;;5090120;28;20382;-62
2021/04/01 03:34:01;;;;;;;15.60;8.60;;;10.90;99.90;;;;;;5088118;28;20509;-61
2021/04/01 03:36:27;;;;;;;12.57;9.00;;;10.80;99.90;;;;;;5090159;28;20378;-61
2021/04/01 03:38:52;;;;;;;14.20;8.30;;;10.70;99.90;;;;;;5088375;28;20733;-56
2021/04/01 03:41:18;;;;;;;15.73;8.37;;;10.60;99.90;;;;;;5089660;28;20774;-62
2021/04/01 03:43:44;;;;;;;15.00;9.07;;;10.60;99.90;;;;;;5089271;28;20447;-62
2021/04/01 03:46:11;;;;;;;16.10;8.37;;;10.70;99.90;;;;;;5088695;28;20386;-61
2021/04/01 03:48:37;;;;;;;15.50;9.13;;;10.70;99.90;;;;;;5088460;28;20887;-61
2021/04/01 03:51:03;;;;;;;17.43;8.70;;;10.80;99.90;;;;;;5088859;28;20389;-63
2021/04/01 03:53:28;;;;;;;15.00;9.60;;;10.70;99.90;;;;;;5088745;28;20431;-62
2021/04/01 03:55:54;;;;;;;16.60;8.97;;;10.60;99.90;;;;;;5086984;28;20452;-61
2021/04/01 04:11:35;;;;;;;17.23;9.10;;;10.30;99.90;;;;;;5084413;28;20407;-62
2021/04/01 04:16:46;;;;;;;18.42;8.65;;;10.10;99.90;;;;;;5085728;28;20407;-62
2021/04/01 04:19:12;;;;;;;14.23;8.20;;;9.90;99.90;;;;;;5076845;28;20458;-61
2021/04/01 04:21:39;;;;;;;18.05;8.75;;;10.00;99.90;;;;;;5084295;28;20425;-62
2021/04/01 04:24:07;;;;;;;16.10;8.48;;;9.90;99.90;;;;;;5081494;28;20396;-61
2021/04/01 04:26:33;;;;;;;18.10;8.80;;;10.00;99.90;;;;;;5080548;28;20452;-61
2021/04/01 04:28:59;;;;;;;15.35;8.40;;;10.00;99.90;;;;;;5087859;28;20410;-62
2021/04/01 04:31:25;;;;;;;18.20;8.17;;;10.00;99.90;;;;;;5071748;28;20434;-62
2021/04/01 04:33:50;;;;;;;15.60;8.10;;;10.00;99.90;;;;;;5088163;28;20719;-58
2021/04/01 04:36:16;;;;;;;17.70;9.00;;;10.00;99.90;;;;;;5088364;28;20405;-62
2021/04/01 04:38:42;;;;;;;17.13;9.80;;;10.20;99.90;;;;;;5087854;28;20402;-62
2021/04/01 04:41:07;;;;;;;16.05;9.20;;;10.20;99.90;;;;;;5088512;28;20434;-62
2021/04/01 04:43:34;;;;;;;16.33;8.80;;;10.10;99.90;;;;;;5089380;28;20382;-61
2021/04/01 04:46:00;;;;;;;15.93;8.52;;;10.10;99.90;;;;;;5087463;28;20470;-62
2021/04/01 04:48:26;;;;;;;19.45;9.73;;;10.10;99.90;;;;;;5089235;28;20870;-62
2021/04/01 04:50:52;;;;;;;17.80;8.80;;;10.20;99.90;;;;;;5087465;28;20390;-62
2021/04/01 04:53:18;;;;;;;18.60;8.40;;;10.10;99.90;;;;;;5071012;28;20378;-59
2021/04/01 04:56:27;;;;;;;17.27;8.53;;;10.20;99.90;;;;;;5089488;28;20746;-59
2021/04/01 05:06:56;;;;;;;14.32;8.00;;;10.40;99.90;;;;;;5086364;28;20448;-58
2021/04/01 05:09:22;;;;;;;17.25;8.85;;;10.50;99.90;;;;;;5083702;28;20385;-58
2021/04/01 05:11:48;;;;;;;21.38;8.57;;;10.70;99.90;;;;;;5086322;28;20404;-58
2021/04/01 05:14:14;;;;;;;15.45;8.77;;;10.60;99.90;;;;;;5066114;28;20742;-58
2021/04/01 05:16:40;;;;;;;16.37;9.00;;;10.70;99.90;;;;;;5082899;28;20414;-58
2021/04/01 05:19:09;;;;;;;17.05;8.90;;;10.70;99.90;;;;;;5066443;28;20403;-58
2021/04/01 05:21:45;;;;;;;19.42;9.50;;;10.70;99.90;;;;;;5084927;28;20401;-58
2021/04/01 05:24:11;;;;;;;16.00;8.90;;;10.80;99.90;;;;;;5087277;28;20890;-57
2021/04/01 05:29:06;;;;;;;21.85;10.05;;;10.90;99.90;;;;;;5086415;28;20451;-58
2021/04/01 05:31:35;;;;;;;14.40;8.68;;;11.00;99.90;;;;;;5088832;28;20397;-58
2021/04/01 05:34:01;;;;;;;18.88;8.40;;;11.10;99.90;;;;;;5087000;28;20444;-57
2021/04/01 05:36:29;;;;;;;16.17;8.32;;;11.20;99.90;;;;;;5092550;28;20852;-58
2021/04/01 05:38:56;;;;;;;14.48;8.23;;;11.20;99.90;;;;;;5090702;28;20394;-55
2021/04/01 05:41:25;;;;;;;16.35;8.60;;;11.50;99.90;;;;;;5092178;28;20485;-57
2021/04/01 05:43:59;;;;;;;16.38;8.50;;;11.60;99.90;;;;;;5092601;28;20451;-57
2021/04/01 05:47:02;;;;;;;17.60;8.20;;;11.70;99.90;;;;;;5091317;28;20925;-57
2021/04/01 06:03:00;;;;;;;19.83;8.07;;;12.30;99.90;;;;;;5090430;28;20489;-57
2021/04/01 06:05:28;;;;;;;12.18;7.57;;;14.00;99.90;;;;;;5084737;28;20893;-57
2021/04/01 06:08:05;;;;;;;15.93;9.20;;;14.40;99.90;;;;;;5088741;28;20480;-57
2021/04/01 06:10:32;;;;;;;14.80;8.75;;;14.50;99.90;;;;;;5092461;28;21054;-58
2021/04/01 06:12:58;;;;;;;18.40;8.88;;;15.10;99.90;;;;;;5090894;28;20386;-58
2021/04/01 06:15:24;;;;;;;15.40;8.00;;;16.20;99.90;;;;;;5089659;28;20398;-57
2021/04/01 06:17:57;;;;;;;20.38;7.90;;;17.10;97.90;;;;;;5090784;28;20461;-57
2021/04/01 06:20:27;;;;;;;18.40;8.23;;;17.40;96.30;;;;;;5091660;28;20879;-57
2021/04/01 06:22:55;;;;;;;17.92;8.50;;;18.30;94.10;;;;;;5090356;28;20455;-55
2021/04/01 06:25:21;;;;;;;15.13;8.60;;;18.70;91.30;;;;;;5091253;28;20390;-58
2021/04/01 06:30:19;;;;;;;14.65;8.65;;;17.40;92.30;;;;;;5090321;28;20541;-58
2021/04/01 06:32:53;;;;;;;17.48;9.13;;;17.50;92.20;;;;;;5075428;28;20455;-58
2021/04/01 06:40:56;;;;;;;17.48;9.40;;;16.60;93.40;;;;;;5089945;28;20410;-57
2021/04/01 06:43:56;;;;;;;17.38;9.80;;;15.90;94.70;;;;;;5091226;28;20382;-58
2021/04/01 06:46:25;;;;;;;19.98;8.50;;;15.50;96.30;;;;;;5088774;28;20481;-58
2021/04/01 06:54:14;;;;;;;18.00;8.60;;;18.80;91.80;;;;;;5088141;28;20425;-54
2021/04/01 06:56:49;;;;;;;15.18;9.00;;;20.30;85.50;;;;;;5089668;28;20492;-57
2021/04/01 07:02:32;;;;;;;14.98;8.80;;;22.10;73.90;;;;;;5088777;28;20409;-57
2021/04/01 07:05:22;;;;;;;16.48;8.98;;;23.10;69.90;;;;;;5088384;28;20824;-57
2021/04/01 07:07:55;;;;;;;19.70;9.30;;;24.10;62.70;;;;;;5090375;28;20379;-57
2021/04/01 07:12:48;;;;;;;19.05;9.32;;;25.00;58.80;;;;;;5088497;28;20410;-57
2021/04/01 07:15:25;;;;;;;16.90;9.43;;;25.00;56.60;;;;;;5089395;28;20871;-57
2021/04/01 07:18:01;;;;;;;16.65;9.02;;;24.90;56.60;;;;;;5090034;28;20402;-58
2021/04/01 07:23:55;;;;;;;14.40;9.07;;;25.70;54.60;;;;;;5088950;28;20412;-58
2021/04/01 07:32:35;;;;;;;13.88;8.90;;;28.10;48.90;;;;;;5090547;28;20369;-57
2021/04/01 07:35:05;;;;;;;18.05;9.55;;;27.30;48.30;;;;;;5088824;28;20902;-58
2021/04/01 07:48:42;;;;;;;17.95;9.35;;;25.20;51.10;;;;;;5090094;28;20371;-57
2021/04/01 07:51:21;;;;;;;15.80;8.75;;;25.50;50.60;;;;;;5089223;28;20378;-57
2021/04/01 07:53:52;;;;;;;17.65;10.55;;;26.20;49.10;;;;;;5089244;28;20400;-58
2021/04/01 07:56:23;;;;;;;13.60;9.02;;;26.40;48.40;;;;;;5088224;28;20589;-57
2021/04/01 07:59:07;;;;;;;15.20;9.70;;;26.20;49.00;;;;;;5089616;28;20436;-57
2021/04/01 08:01:44;;;;;;;17.17;9.80;;;26.10;49.10;;;;;;5089297;28;20413;-57
2021/04/01 08:04:10;;;;;;;17.03;9.00;;;25.90;49.20;;;;;;5088407;28;20477;-57
2021/04/01 08:06:37;;;;;;;16.00;8.77;;;27.00;48.20;;;;;;5070420;28;20387;-58
2021/04/01 08:09:08;;;;;;;16.33;9.50;;;28.20;46.90;;;;;;5081819;28;20876;-58
2021/04/01 08:11:39;;;;;;;17.02;9.40;;;28.60;45.50;;;;;;5089796;28;20835;-57
2021/04/01 08:14:08;;;;;;;13.90;10.30;;;29.60;44.60;;;;;;5088729;28;20432;-58
2021/04/01 08:16:41;;;;;;;17.10;9.70;;;30.30;43.50;;;;;;5088329;28;20408;-58
2021/04/01 08:19:12;;;;;;;16.20;9.50;;;30.90;42.70;;;;;;5087679;28;20790;-57
2021/04/01 08:21:41;;;;;;;14.10;9.10;;;31.50;41.20;;;;;;5088567;28;20890;-58
2021/04/01 08:24:13;;;;;;;21.20;9.25;;;31.90;40.90;;;;;;5087404;28;20402;-57
2021/04/01 08:32:43;;;;;;;17.05;9.40;;;32.70;38.60;;;;;;5088183;28;20888;-57
2021/04/01 08:35:11;;;;;;;14.60;8.40;;;31.90;39.60;;;;;;5086450;28;20394;-57
2021/04/01 08:37:41;;;;;;;16.33;9.02;;;31.90;39.10;;;;;;5088615;28;20393;-59
2021/04/01 08:40:09;;;;;;;23.33;16.77;;;31.80;38.50;;;;;;5088606;28;20471;-58
2021/04/01 08:42:43;;;;;;;12.57;8.82;;;31.50;39.00;;;;;;5089487;28;20393;-57
2021/04/01 08:45:46;;;;;;;14.70;8.23;;;31.00;39.00;;;;;;5086701;28;20394;-60
2021/04/01 08:48:26;;;;;;;16.95;9.52;;;31.20;38.80;;;;;;5070600;28;20404;-57
2021/04/01 08:51:07;;;;;;;13.05;7.80;;;31.10;38.50;;;;;;5087991;28;20435;-57
2021/04/01 08:53:54;;;;;;;13.65;7.15;;;30.60;39.10;;;;;;5087456;28;20401;-57
2021/04/01 08:56:23;;;;;;;14.73;7.90;;;30.10;39.60;;;;;;5086347;28;21380;-56
2021/04/01 08:59:30;;;;;;;14.57;6.97;;;30.30;39.40;;;;;;5089062;28;20397;-57
2021/04/01 09:01:57;;;;;;;16.07;6.20;;;30.40;39.80;;;;;;5041290;28;20398;-57
2021/04/01 09:04:29;;;;;;;11.70;6.28;;;30.30;38.60;;;;;;5086897;28;20423;-56
2021/04/01 09:07:11;;;;;;;12.00;6.47;;;30.50;38.60;;;;;;5088341;28;20402;-56
2021/04/01 09:09:39;;;;;;;14.90;6.80;;;30.10;38.80;;;;;;5088797;28;20910;-57
2021/04/01 09:12:25;;;;;;;13.70;6.03;;;29.40;39.80;;;;;;5091764;28;20461;-56
2021/04/01 09:14:59;;;;;;;10.40;5.80;;;28.20;41.70;;;;;;5092283;28;20859;-56
2021/04/01 09:17:35;;;;;;;15.20;7.53;;;28.40;41.40;;;;;;5092087;28;20409;-56
2021/04/01 09:20:18;;;;;;;11.57;6.20;;;28.70;41.00;;;;;;5091502;28;20412;-56
2021/04/01 09:22:46;;;;;;;13.75;6.00;;;28.50;40.80;;;;;;5091770;28;20396;-56
2021/04/01 09:25:14;;;;;;;14.23;6.10;;;28.30;41.50;;;;;;5091856;28;20843;-56
2021/04/01 09:27:45;;;;;;;12.63;6.45;;;28.80;40.80;;;;;;5091604;28;20485;-56
2021/04/01 09:30:11;;;;;;;16.00;6.60;;;29.30;40.30;;;;;;5091830;28;20390;-56
2021/04/01 09:32:38;;;;;;;10.13;5.10;;;29.00;39.90;;;;;;5091157;28;20408;-56
2021/04/01 09:35:06;;;;;;;11.25;6.10;;;29.00;40.10;;;;;;5090905;28;20480;-56
2021/04/01 09:37:32;;;;;;;11.25;6.20;;;29.30;40.20;;;;;;5092338;28;20377;-56
2021/04/01 09:40:10;;;;;;;14.68;6.10;;;29.70;39.40;;;;;;5090522;28;20454;-56
2021/04/01 09:42:45;;;;;;;11.43;6.13;;;31.20;38.20;;;;;;5073973;28;20737;-57
2021/04/01 09:45:13;;;;;;;11.30;6.18;;;31.20;37.60;;;;;;5092103;28;20445;-56
2021/04/01 09:47:50;;;;;;;8.50;5.50;;;31.10;37.90;;;;;;5090825;28;20540;-56
2021/04/01 09:50:16;;;;;;;9.85;5.50;;;31.60;37.30;;;;;;5091386;28;20403;-56
2021/04/01 09:52:56;;;;;;;10.80;5.40;;;32.10;36.40;;;;;;5090837;28;20382;-57
2021/04/01 09:55:22;;;;;;;11.65;5.03;;;32.70;36.00;;;;;;5091448;28;20381;-56
2021/04/01 09:57:54;;;;;;;10.27;5.30;;;31.60;35.70;;;;;;5091331;28;20409;-56
2021/04/01 10:03:21;;;;;;;14.38;5.90;;;30.50;37.60;;;;;;5090058;28;20409;-55
2021/04/01 10:05:48;;;;;;;10.43;5.40;;;29.90;38.30;;;;;;5079731;28;20384;-56
2021/04/01 10:08:27;;;;;;;11.32;4.70;;;30.30;38.10;;;;;;5085996;28;20541;-56
2021/04/01 10:10:59;;;;;;;12.07;4.80;;;30.70;37.80;;;;;;5091683;28;20386;-56
2021/04/01 10:13:29;;;;;;;11.18;4.45;;;30.90;37.80;;;;;;5090575;28;20394;-56
2021/04/01 10:15:59;;;;;;;11.60;4.40;;;30.20;38.30;;;;;;5091520;28;20409;-57
2021/04/01 10:18:31;;;;;;;11.83;4.73;;;31.40;38.10;;;;;;5090276;28;20394;-56
2021/04/01 10:21:11;;;;;;;10.30;4.10;;;31.10;37.60;;;;;;5089751;28;20806;-57
2021/04/01 10:23:47;;;;;;;14.15;4.38;;;30.40;37.60;;;;;;5090992;28;20390;-56
2021/04/01 10:26:15;;;;;;;8.13;3.70;;;30.10;37.90;;;;;;5089097;28;20433;-56
2021/04/01 10:32:03;;;;;;;8.40;4.07;;;30.50;37.60;;;;;;5034884;28;20751;-56
2021/04/01 10:34:44;;;;;;;7.50;3.70;;;29.90;37.00;;;;;;5090894;28;20378;-56
2021/04/01 10:37:11;;;;;;;9.00;4.07;;;29.90;38.80;;;;;;5089556;28;20398;-55
2021/04/01 10:39:40;;;;;;;10.75;4.00;;;30.40;37.60;;;;;;5090771;28;20374;-57
2021/04/01 10:42:08;;;;;;;8.20;3.70;;;30.30;37.10;;;;;;5090979;28;20389;-57
2021/04/01 10:44:35;;;;;;;8.35;3.70;;;30.10;37.10;;;;;;5089115;28;20393;-57
2021/04/01 10:47:03;;;;;;;10.55;4.00;;;29.80;36.80;;;;;;5090077;28;20729;-56
2021/04/01 10:49:31;;;;;;;8.90;3.73;;;30.10;37.50;;;;;;5089402;28;20421;-57
2021/04/01 10:52:08;;;;;;;15.55;4.55;;;30.40;37.50;;;;;;5091223;28;20457;-57
2021/04/01 10:54:39;;;;;;;8.82;3.80;;;30.40;38.00;;;;;;5091181;28;20374;-57
2021/04/01 10:57:12;;;;;;;8.77;3.50;;;30.90;36.80;;;;;;5088732;28;20463;-58
2021/04/01 10:59:46;;;;;;;9.40;3.58;;;31.50;35.80;;;;;;5089258;28;20495;-57
2021/04/01 11:02:24;;;;;;;8.40;3.33;;;30.70;36.70;;;;;;5090313;28;20398;-57
2021/04/01 11:04:57;;;;;;;11.13;3.92;;;30.20;37.00;;;;;;5087951;28;20822;-57
2021/04/01 11:07:24;;;;;;;11.52;3.70;;;30.10;37.70;;;;;;5090195;28;20388;-56
2021/04/01 11:09:51;;;;;;;7.88;3.50;;;30.40;37.30;;;;;;5088734;28;20407;-55
2021/04/01 11:12:19;;;;;;;6.67;3.50;;;30.70;37.10;;;;;;5090140;28;20393;-55
2021/04/01 11:14:53;;;;;;;8.77;3.97;;;30.90;37.30;;;;;;5089359;28;20394;-55
2021/04/01 11:17:22;;;;;;;7.97;4.05;;;30.90;36.20;;;;;;5088759;28;20470;-56
2021/04/01 11:19:49;;;;;;;8.75;3.80;;;30.90;37.00;;;;;;5089616;28;20439;-56
2021/04/01 11:22:15;;;;;;;7.80;4.07;;;30.90;36.70;;;;;;5071179;28;20394;-56
2021/04/01 11:24:41;;;;;;;11.10;3.53;;;31.00;36.40;;;;;;5090025;28;20405;-55
2021/04/01 11:27:15;;;;;;;7.75;3.50;;;31.10;36.20;;;;;;5088343;28;20409;-55
2021/04/01 11:29:53;;;;;;;11.02;4.00;;;30.30;36.60;;;;;;5088993;28;20913;-55
2021/04/01 11:32:20;;;;;;;6.85;3.33;;;30.40;36.10;;;;;;5089639;28;20371;-56
2021/04/01 11:34:48;;;;;;;6.40;3.40;;;30.10;36.90;;;;;;5088461;28;20432;-55
2021/04/01 11:37:20;;;;;;;7.03;3.65;;;29.10;38.10;;;;;;5089275;28;20370;-55
2021/04/01 11:39:46;;;;;;;14.02;4.10;;;28.80;38.00;;;;;;5089609;28;20397;-55
2021/04/01 11:42:15;;;;;;;7.80;3.90;;;28.70;38.60;;;;;;5088795;28;20401;-55
2021/04/01 11:44:42;;;;;;;8.57;3.90;;;28.40;39.10;;;;;;5090515;28;20378;-55
2021/04/01 11:47:15;;;;;;;10.40;3.70;;;27.80;39.30;;;;;;5087881;28;20420;-55
2021/04/01 11:49:41;;;;;;;7.72;3.78;;;27.40;40.30;;;;;;5089740;28;20374;-56
2021/04/01 11:52:09;;;;;;;9.73;3.50;;;27.60;40.20;;;;;;5088238;28;20866;-55
2021/04/01 11:54:36;;;;;;;9.98;3.70;;;27.90;40.20;;;;;;5088981;28;20394;-55
2021/04/01 11:57:03;;;;;;;8.43;3.20;;;28.10;40.00;;;;;;5088598;28;20879;-55
2021/04/01 11:59:33;;;;;;;9.20;3.50;;;28.20;40.10;;;;;;5088770;28;20396;-55
2021/04/01 12:02:05;;;;;;;8.40;3.38;;;27.90;39.90;;;;;;5089810;28;20442;-55
2021/04/01 12:04:34;;;;;;;8.63;3.40;;;28.00;39.40;;;;;;5087562;28;20390;-55
2021/04/01 12:07:03;;;;;;;13.10;3.95;;;28.00;39.60;;;;;;5089959;28;20374;-55
2021/04/01 12:09:29;;;;;;;7.33;3.20;;;27.80;39.70;;;;;;5089008;28;20448;-55
2021/04/01 12:11:55;;;;;;;8.02;3.30;;;27.90;39.40;;;;;;5088393;28;20853;-56
2021/04/01 12:14:34;;;;;;;11.23;3.70;;;27.90;39.60;;;;;;5089146;28;20665;-56
2021/04/01 12:17:02;;;;;;;11.38;4.05;;;27.90;39.60;;;;;;5071074;28;20432;-56
2021/04/01 12:19:28;;;;;;;6.97;3.53;;;28.00;39.60;;;;;;5088515;28;20397;-55
2021/04/01 12:21:54;;;;;;;10.05;3.40;;;28.20;39.50;;;;;;5089188;28;20504;-56
2021/04/01 12:24:19;;;;;;;8.18;3.53;;;28.30;39.40;;;;;;5087926;28;20539;-56
2021/04/01 12:26:50;;;;;;;8.52;3.58;;;28.50;38.70;;;;;;5089464;28;20844;-56
2021/04/01 12:29:17;;;;;;;9.07;3.50;;;28.40;39.00;;;;;;5088262;28;20385;-55
2021/04/01 12:31:51;;;;;;;9.48;3.80;;;27.90;39.40;;;;;;5088489;28;20862;-56
2021/04/01 12:34:29;;;;;;;10.70;3.78;;;27.80;39.70;;;;;;5088575;28;20751;-55
2021/04/01 12:36:56;;;;;;;7.32;3.80;;;27.90;39.80;;;;;;5087329;28;20763;-56
2021/04/01 12:39:33;;;;;;;9.87;3.50;;;28.20;39.20;;;;;;5088637;28;20384;-56
2021/04/01 12:41:59;;;;;;;10.38;3.72;;;28.00;39.40;;;;;;5087833;28;20389;-55
2021/04/01 12:44:39;;;;;;;10.88;3.65;;;27.70;38.90;;;;;;5089164;28;20366;-56
2021/04/01 12:47:06;;;;;;;7.60;3.65;;;27.60;39.20;;;;;;5093073;28;20407;-55
2021/04/01 12:49:36;;;;;;;8.73;4.18;;;27.10;40.10;;;;;;5091995;28;20847;-56
2021/04/01 12:52:06;;;;;;;9.65;4.20;;;27.10;39.80;;;;;;5085139;28;20408;-55
2021/04/01 12:54:39;;;;;;;9.38;3.90;;;27.50;39.70;;;;;;5091577;28;20438;-57
2021/04/01 12:57:09;;;;;;;8.40;3.63;;;27.70;39.70;;;;;;5080564;28;20395;-55
2021/04/01 12:59:42;;;;;;;12.15;3.88;;;27.40;40.30;;;;;;5088490;28;20494;-56
2021/04/01 13:02:14;;;;;;;8.50;3.80;;;27.30;40.80;;;;;;5085637;28;20805;-56
2021/04/01 13:04:51;;;;;;;9.70;4.15;;;27.50;40.50;;;;;;5089810;28;20405;-56
2021/04/01 13:12:19;;;;;;;8.90;3.40;;;27.60;39.70;;;;;;5087981;28;20398;-55
2021/04/01 13:14:46;;;;;;;8.57;3.53;;;27.80;39.40;;;;;;5093460;28;20385;-56
2021/04/01 13:17:13;;;;;;;8.40;3.58;;;27.50;39.30;;;;;;5090879;28;20521;-56
2021/04/01 13:19:39;;;;;;;8.40;3.40;;;27.40;39.10;;;;;;5092550;28;20389;-56
2021/04/01 13:22:09;;;;;;;9.38;3.78;;;27.20;39.90;;;;;;5090076;28;20405;-55
2021/04/01 13:27:03;;;;;;;9.73;3.90;;;27.20;39.70;;;;;;5092310;28;20393;-56
2021/04/01 13:29:34;;;;;;;7.40;3.53;;;26.80;40.70;;;;;;5090682;28;20883;-56
2021/04/01 13:34:54;;;;;;;7.60;3.95;;;26.30;40.70;;;;;;5092086;28;20402;-56
2021/04/01 13:37:35;;;;;;;10.20;4.30;;;26.40;40.80;;;;;;5090728;28;20405;-56
2021/04/01 13:40:21;;;;;;;8.38;3.83;;;26.30;41.60;;;;;;5089535;28;20755;-56
2021/04/01 13:42:55;;;;;;;10.40;4.30;;;26.10;42.20;;;;;;5085383;28;20547;-56
2021/04/01 13:45:23;;;;;;;9.63;4.40;;;26.10;41.50;;;;;;5081720;28;20445;-56
2021/04/01 13:47:56;;;;;;;10.98;5.20;;;26.20;40.80;;;;;;5090614;28;20393;-56
2021/04/01 13:50:24;;;;;;;10.10;5.18;;;26.10;41.30;;;;;;5085113;28;20474;-56
2021/04/01 13:55:37;;;;;;;9.57;5.10;;;25.50;42.10;;;;;;5086138;28;20428;-56
2021/04/01 14:04:06;;;;;;;9.10;5.00;;;25.30;42.60;;;;;;5090804;28;20439;-56
2021/04/01 14:09:28;;;;;;;11.73;6.00;;;25.10;41.60;;;;;;5090424;28;20934;-56
2021/04/01 14:11:57;;;;;;;11.65;5.60;;;25.00;41.80;;;;;;5091813;28;20387;-56
2021/04/01 14:14:23;;;;;;;12.45;5.03;;;25.10;42.20;;;;;;5089602;28;20424;-56
2021/04/01 14:16:52;;;;;;;12.40;5.45;;;25.20;42.00;;;;;;5090833;28;20402;-56
2021/04/01 14:19:20;;;;;;;10.23;5.03;;;25.20;41.60;;;;;;5089583;28;20398;-56
2021/04/01 14:22:00;;;;;;;10.17;5.27;;;25.40;41.70;;;;;;5091069;28;20724;-56
2021/04/01 14:24:34;;;;;;;9.43;4.50;;;25.60;41.80;;;;;;5088768;28;20469;-55
2021/04/01 14:29:46;;;;;;;12.60;4.80;;;25.80;41.40;;;;;;5089974;28;20416;-56
2021/04/01 14:32:12;;;;;;;10.35;4.50;;;25.70;41.60;;;;;;5090435;28;20844;-56
2021/04/01 14:34:40;;;;;;;10.82;5.32;;;25.70;41.10;;;;;;5090591;28;20394;-56
2021/04/01 14:37:07;;;;;;;13.88;5.70;;;25.40;41.80;;;;;;5090738;28;20392;-55
2021/04/01 14:39:33;;;;;;;10.20;4.97;;;25.20;42.00;;;;;;5090760;28;20402;-56
2021/04/01 14:42:09;;;;;;;9.63;4.80;;;25.20;41.90;;;;;;5090436;28;20963;-56
2021/04/01 14:44:35;;;;;;;13.00;4.93;;;25.20;42.30;;;;;;5072008;28;20748;-55
2021/04/01 14:47:02;;;;;;;11.93;5.05;;;25.10;42.80;;;;;;5090837;28;20386;-56